createdAt,value
2024-05-09T00:08:05.049Z,11.17
2024-05-09T00:18:12.424Z,10.93
2024-05-09T00:28:17.114Z,10.92
2024-05-09T00:38:24.307Z,10.88
2024-05-09T00:48:29.888Z,10.83
2024-05-09T00:58:37.302Z,10.81
2024-05-09T01:08:41.923Z,10.75
2024-05-09T01:18:49.285Z,10.71
2024-05-09T01:28:56.634Z,10.67
2024-05-09T01:39:01.415Z,10.44
2024-05-09T01:49:08.750Z,10.37
2024-05-09T01:59:13.374Z,10.30
2024-05-09T02:09:21.063Z,10.33
2024-05-09T02:19:25.713Z,10.34
2024-05-09T02:29:33.079Z,10.25
2024-05-09T02:39:37.704Z,10.20
2024-05-09T02:49:44.921Z,10.12
2024-05-09T02:59:50.272Z,10.03
2024-05-09T03:09:57.409Z,9.91
2024-05-09T03:20:02.129Z,9.82
2024-05-09T03:30:15.333Z,9.79
2024-05-09T03:40:29.049Z,9.79
2024-05-09T03:50:38.272Z,9.82
2024-05-09T04:00:43.558Z,9.92
2024-05-09T04:10:50.748Z,9.90
2024-05-09T04:20:56.738Z,9.66
2024-05-09T04:31:04.004Z,9.90
2024-05-09T04:41:08.641Z,10.09
2024-05-09T04:51:15.884Z,10.24
2024-05-09T05:01:20.710Z,10.60
2024-05-09T05:11:28.094Z,10.87
2024-05-09T05:21:32.783Z,11.27
2024-05-09T05:31:40.229Z,11.47
2024-05-09T05:41:45.099Z,11.77
2024-05-09T05:51:52.280Z,12.26
2024-05-09T06:01:56.815Z,12.55
2024-05-09T06:12:04.286Z,13.16
2024-05-09T06:22:09.598Z,13.56
2024-05-09T06:32:18.488Z,13.48
2024-05-09T06:42:23.178Z,13.44
2024-05-09T06:52:30.463Z,14.08
2024-05-09T07:02:35.161Z,14.73
2024-05-09T07:12:42.502Z,14.30
2024-05-09T07:22:47.083Z,14.60
2024-05-09T07:32:56.011Z,15.36
2024-05-09T07:43:00.713Z,16.24
2024-05-09T07:53:36.531Z,16.21
2024-05-09T08:03:32.870Z,15.69
2024-05-09T08:13:40.235Z,16.84
2024-05-09T08:23:44.964Z,17.36
2024-05-09T08:33:52.926Z,16.76
2024-05-09T08:43:57.781Z,17.88
2024-05-09T08:54:06.264Z,17.69
2024-05-09T09:04:12.887Z,17.25
2024-05-09T09:14:20.332Z,18.23
2024-05-09T09:24:24.846Z,17.99
2024-05-09T09:34:33.280Z,18.57
2024-05-09T09:44:42.034Z,18.03
2024-05-09T09:54:51.253Z,19.08
2024-05-09T10:04:58.946Z,18.87
2024-05-09T10:15:14.109Z,19.00
2024-05-09T10:25:30.695Z,20.73
2024-05-09T10:35:38.219Z,19.72
2024-05-09T10:45:42.794Z,20.11
2024-05-09T10:55:59.129Z,21.39
2024-05-09T11:06:04.377Z,21.92
2024-05-09T11:16:20.192Z,21.49
2024-05-09T11:26:28.075Z,23.82
2024-05-09T11:36:35.802Z,27.14
2024-05-09T11:46:40.884Z,23.82
2024-05-09T11:56:48.809Z,33.40
2024-05-09T12:06:53.532Z,35.13
2024-05-09T12:17:01.909Z,28.54
2024-05-09T12:27:06.896Z,32.09
2024-05-09T12:37:14.145Z,27.65
2024-05-09T12:47:19.353Z,31.83
2024-05-09T12:57:26.910Z,35.09
2024-05-09T13:07:31.596Z,30.04
2024-05-09T13:17:38.962Z,28.14
2024-05-09T13:27:43.782Z,31.38
2024-05-09T13:37:51.055Z,31.97
2024-05-09T13:47:57.169Z,28.00
2024-05-09T13:58:04.764Z,26.77
2024-05-09T14:08:09.923Z,25.95
2024-05-09T14:18:17.460Z,26.56
2024-05-09T14:28:22.616Z,30.07
2024-05-09T14:38:30.321Z,29.66
2024-05-09T14:48:35.183Z,29.20
2024-05-09T14:58:42.492Z,27.82
2024-05-09T15:08:47.048Z,26.79
2024-05-09T15:18:54.574Z,25.92
2024-05-09T15:28:59.284Z,25.74
2024-05-09T15:39:06.641Z,26.27
2024-05-09T15:49:12.045Z,25.24
2024-05-09T15:59:19.722Z,24.46
2024-05-09T16:09:24.542Z,23.36
2024-05-09T16:19:31.670Z,22.48
2024-05-09T16:29:36.237Z,22.34
2024-05-09T16:39:43.555Z,22.27
2024-05-09T16:49:48.132Z,22.18
2024-05-09T16:59:55.257Z,21.83
2024-05-09T17:09:59.880Z,21.81
2024-05-09T17:20:10.491Z,21.47
2024-05-09T17:30:28.660Z,20.93
2024-05-09T17:40:41.265Z,20.68
2024-05-09T17:50:45.929Z,20.57
2024-05-09T18:00:53.277Z,20.77
2024-05-09T18:10:57.953Z,20.26
2024-05-09T18:21:05.265Z,19.72
2024-05-09T18:31:09.919Z,19.31
2024-05-09T18:41:17.292Z,18.91
2024-05-09T18:51:21.980Z,18.58
2024-05-09T19:01:29.352Z,18.35
2024-05-09T19:11:34.482Z,18.22
2024-05-09T19:21:43.004Z,18.05
2024-05-09T19:31:47.826Z,17.84
2024-05-09T19:41:55.190Z,17.72
2024-05-09T19:51:59.779Z,17.47
2024-05-09T20:02:07.502Z,17.26
2024-05-09T20:12:12.272Z,17.16
2024-05-09T20:22:19.566Z,17.11
2024-05-09T20:32:24.152Z,17.02
2024-05-09T20:42:31.505Z,16.78
2024-05-09T20:52:36.066Z,16.75
2024-05-09T21:02:43.903Z,16.61
2024-05-09T21:12:48.526Z,16.46
2024-05-09T21:22:55.910Z,16.42
2024-05-09T21:33:00.545Z,16.36
2024-05-09T21:43:09.071Z,16.26
2024-05-09T21:53:14.047Z,16.02
2024-05-09T22:03:21.649Z,16.04
2024-05-09T22:13:26.322Z,15.84
2024-05-09T22:23:33.565Z,15.43
2024-05-09T22:33:38.351Z,15.10
2024-05-09T22:43:46.020Z,14.86
2024-05-09T22:53:50.561Z,14.66
2024-05-09T23:03:58.014Z,14.39
2024-05-09T23:14:02.872Z,14.06
2024-05-09T23:24:10.273Z,13.78
2024-05-09T23:34:14.982Z,13.61
2024-05-09T23:44:22.352Z,13.38
2024-05-09T23:54:26.911Z,13.31
